createdAt,value
2023-04-29T00:01:37.111Z,7.40
2023-04-29T00:04:09.635Z,7.88
2023-04-29T00:06:42.262Z,9.38
2023-04-29T00:09:14.638Z,9.32
2023-04-29T00:11:47.237Z,10.13
2023-04-29T00:14:20.379Z,7.55
2023-04-29T00:16:52.813Z,12.40
2023-04-29T00:19:25.278Z,7.00
2023-04-29T00:21:57.642Z,9.98
2023-04-29T00:24:29.963Z,8.93
2023-04-29T00:27:02.470Z,10.13
2023-04-29T00:29:36.170Z,12.13
2023-04-29T00:32:08.627Z,8.57
2023-04-29T00:34:40.910Z,15.93
2023-04-29T00:37:13.278Z,12.82
2023-04-29T00:39:45.586Z,10.88
2023-04-29T00:42:19.018Z,14.07
2023-04-29T00:44:51.982Z,11.65
2023-04-29T00:47:24.380Z,12.50
2023-04-29T00:49:56.680Z,9.75
2023-04-29T00:52:30.865Z,6.78
2023-04-29T00:55:05.854Z,11.55
2023-04-29T00:57:39.085Z,11.00
2023-04-29T01:00:13.762Z,6.63
2023-04-29T01:02:56.304Z,9.02
2023-04-29T01:05:28.895Z,7.70
2023-04-29T01:08:18.379Z,7.32
2023-04-29T01:10:56.856Z,9.07
2023-04-29T01:13:31.066Z,7.47
2023-04-29T01:16:11.362Z,14.18
2023-04-29T01:18:49.563Z,10.75
2023-04-29T01:21:25.190Z,7.45
2023-04-29T01:23:58.213Z,5.70
2023-04-29T01:26:34.835Z,5.60
2023-04-29T01:29:28.334Z,5.20
2023-04-29T01:32:08.310Z,9.43
2023-04-29T01:34:47.413Z,5.05
2023-04-29T01:37:28.269Z,6.35
2023-04-29T01:40:10.020Z,9.40
2023-04-29T01:42:55.776Z,5.75
2023-04-29T01:45:29.439Z,7.30
2023-04-29T01:48:04.072Z,6.63
2023-04-29T01:50:36.967Z,9.30
2023-04-29T01:53:16.800Z,7.35
2023-04-29T01:55:51.037Z,5.65
2023-04-29T01:58:30.751Z,7.03
2023-04-29T02:01:13.588Z,6.60
2023-04-29T02:03:46.337Z,9.00
2023-04-29T02:06:20.871Z,8.32
2023-04-29T02:08:58.436Z,7.22
2023-04-29T02:11:31.511Z,7.03
2023-04-29T02:14:03.955Z,12.00
2023-04-29T02:16:36.364Z,9.45
2023-04-29T02:19:12.131Z,8.82
2023-04-29T02:21:45.135Z,9.13
2023-04-29T02:24:17.579Z,14.90
2023-04-29T02:26:54.070Z,10.05
2023-04-29T02:29:29.092Z,10.35
2023-04-29T02:32:01.519Z,7.75
2023-04-29T02:34:34.014Z,9.95
2023-04-29T02:37:06.768Z,8.48
2023-04-29T02:39:39.071Z,13.65
2023-04-29T02:42:12.579Z,10.02
2023-04-29T02:44:44.828Z,7.53
2023-04-29T02:47:17.194Z,10.07
2023-04-29T02:50:09.730Z,10.13
2023-04-29T02:53:00.871Z,10.52
2023-04-29T02:55:33.509Z,11.82
2023-04-29T02:58:12.529Z,9.00
2023-04-29T03:00:44.872Z,10.90
2023-04-29T03:03:17.342Z,7.47
2023-04-29T03:05:50.024Z,10.68
2023-04-29T03:08:22.360Z,10.18
2023-04-29T03:10:54.725Z,11.32
2023-04-29T03:13:27.723Z,9.45
2023-04-29T03:16:01.050Z,8.00
2023-04-29T03:18:33.533Z,10.27
2023-04-29T03:21:05.949Z,11.48
2023-04-29T03:23:39.468Z,6.88
2023-04-29T03:26:12.889Z,10.20
2023-04-29T03:28:45.916Z,8.27
2023-04-29T03:31:20.334Z,4.70
2023-04-29T03:33:52.990Z,6.57
2023-04-29T03:36:26.417Z,9.55
2023-04-29T03:39:31.480Z,11.85
2023-04-29T03:42:04.373Z,13.15
2023-04-29T03:44:37.387Z,11.20
2023-04-29T03:47:09.737Z,7.45
2023-04-29T03:49:42.155Z,7.50
2023-04-29T03:52:15.388Z,6.85
2023-04-29T03:54:48.194Z,9.43
2023-04-29T03:57:20.558Z,8.60
2023-04-29T03:59:53.911Z,6.22
2023-04-29T04:02:27.852Z,12.63
2023-04-29T04:05:01.296Z,11.80
2023-04-29T04:07:33.751Z,7.03
2023-04-29T04:10:37.744Z,10.73
2023-04-29T04:13:19.581Z,11.98
2023-04-29T04:15:53.663Z,7.35
2023-04-29T04:18:26.113Z,7.63
2023-04-29T04:20:58.445Z,9.00
2023-04-29T04:23:31.925Z,6.15
2023-04-29T04:26:04.380Z,7.18
2023-04-29T04:28:58.937Z,22.60
2023-04-29T04:31:40.374Z,8.23
2023-04-29T04:34:13.954Z,9.90
2023-04-29T04:36:46.394Z,12.30
2023-04-29T04:39:18.718Z,17.33
2023-04-29T04:41:51.195Z,16.27
2023-04-29T04:44:25.041Z,13.73
2023-04-29T04:47:12.111Z,16.83
2023-04-29T04:49:54.871Z,11.35
2023-04-29T04:52:27.798Z,11.82
2023-04-29T04:55:21.328Z,24.45
2023-04-29T04:57:55.748Z,17.77
2023-04-29T05:00:28.162Z,20.77
2023-04-29T05:03:01.611Z,21.23
2023-04-29T05:05:34.278Z,11.68
2023-04-29T05:08:07.166Z,13.13
2023-04-29T05:10:45.347Z,12.95
2023-04-29T05:13:18.741Z,18.45
2023-04-29T05:15:51.350Z,12.60
2023-04-29T05:18:28.408Z,13.75
2023-04-29T05:21:00.839Z,9.00
2023-04-29T05:23:33.119Z,15.10
2023-04-29T05:26:05.613Z,14.07
2023-04-29T05:28:37.917Z,9.52
2023-04-29T05:31:10.830Z,12.38
2023-04-29T05:33:43.904Z,13.13
2023-04-29T05:36:16.210Z,8.73
2023-04-29T05:38:48.654Z,7.00
2023-04-29T05:41:23.477Z,6.97
2023-04-29T05:44:02.001Z,9.73
2023-04-29T05:46:37.150Z,8.52
2023-04-29T05:49:10.532Z,8.07
2023-04-29T05:51:42.965Z,12.75
2023-04-29T05:54:15.612Z,13.20
2023-04-29T05:56:48.079Z,10.77
2023-04-29T05:59:20.431Z,7.43
2023-04-29T06:01:57.674Z,4.50
2023-04-29T06:04:31.193Z,17.08
2023-04-29T06:07:26.118Z,5.80
2023-04-29T06:10:17.550Z,3.25
2023-04-29T06:12:51.653Z,3.90
2023-04-29T06:15:24.145Z,4.90
2023-04-29T06:17:56.678Z,3.42
2023-04-29T06:20:29.736Z,3.05
2023-04-29T06:23:02.019Z,5.10
2023-04-29T06:25:34.628Z,3.33
2023-04-29T06:28:10.159Z,6.38
2023-04-29T06:30:42.945Z,2.88
2023-04-29T06:33:16.303Z,8.68
2023-04-29T06:35:49.304Z,3.97
2023-04-29T06:38:41.888Z,6.10
2023-04-29T06:41:52.689Z,5.38
2023-04-29T06:44:49.934Z,5.28
2023-04-29T06:47:33.582Z,14.10
2023-04-29T06:50:19.504Z,6.50
2023-04-29T06:52:52.567Z,8.55
2023-04-29T06:55:24.921Z,8.60
2023-04-29T06:57:57.430Z,10.35
2023-04-29T07:00:29.788Z,5.95
2023-04-29T07:03:02.548Z,8.98
2023-04-29T07:05:34.932Z,9.77
2023-04-29T07:08:09.661Z,9.30
2023-04-29T07:10:42.074Z,7.97
2023-04-29T07:13:14.402Z,10.73
2023-04-29T07:15:47.808Z,18.15
2023-04-29T07:18:20.197Z,8.27
2023-04-29T07:20:52.604Z,6.80
2023-04-29T07:23:25.629Z,9.90
2023-04-29T07:25:57.941Z,6.57
2023-04-29T07:28:30.390Z,6.53
2023-04-29T07:31:02.779Z,6.68
2023-04-29T07:33:36.035Z,4.80
2023-04-29T07:36:08.575Z,6.72
2023-04-29T07:38:42.016Z,7.57
2023-04-29T07:41:14.386Z,6.65
2023-04-29T07:43:46.788Z,6.80
2023-04-29T07:46:19.673Z,5.38
2023-04-29T07:48:52.777Z,6.55
2023-04-29T07:51:26.790Z,8.40
2023-04-29T07:54:00.060Z,3.78
2023-04-29T07:56:32.894Z,6.55
2023-04-29T07:59:05.886Z,4.45
2023-04-29T08:01:38.556Z,2.63
2023-04-29T08:04:11.240Z,4.93
2023-04-29T08:06:53.104Z,6.70
2023-04-29T08:09:26.207Z,4.63
2023-04-29T08:11:58.567Z,7.30
2023-04-29T08:14:31.001Z,7.07
2023-04-29T08:17:05.410Z,6.18
2023-04-29T08:19:37.908Z,6.18
2023-04-29T08:22:11.608Z,7.50
2023-04-29T08:24:44.736Z,6.80
2023-04-29T08:27:17.065Z,4.93
2023-04-29T08:29:49.441Z,3.47
2023-04-29T08:32:22.028Z,9.00
2023-04-29T08:34:54.689Z,6.50
2023-04-29T08:37:27.666Z,3.67
2023-04-29T08:40:01.070Z,7.53
2023-04-29T08:42:35.632Z,6.13
2023-04-29T08:45:08.931Z,4.22
2023-04-29T08:47:41.932Z,8.73
2023-04-29T08:50:14.316Z,8.32
2023-04-29T08:52:46.756Z,6.68
2023-04-29T08:55:19.845Z,7.47
2023-04-29T08:57:54.588Z,6.75
2023-04-29T09:00:26.975Z,8.10
2023-04-29T09:03:01.001Z,6.68
2023-04-29T09:05:35.778Z,6.68
2023-04-29T09:08:08.674Z,3.75
2023-04-29T09:10:42.859Z,2.47
2023-04-29T09:13:24.338Z,5.65
2023-04-29T09:15:57.259Z,3.30
2023-04-29T09:18:43.562Z,6.13
2023-04-29T09:21:19.646Z,6.20
2023-04-29T09:23:55.371Z,2.67
2023-04-29T09:26:40.803Z,6.40
2023-04-29T09:29:15.404Z,6.15
2023-04-29T09:31:48.353Z,5.97
2023-04-29T09:34:31.524Z,8.38
2023-04-29T09:37:03.981Z,6.47
2023-04-29T09:39:39.463Z,4.75
2023-04-29T09:42:12.565Z,7.30
2023-04-29T09:44:44.965Z,7.15
2023-04-29T09:47:17.435Z,6.43
2023-04-29T09:49:49.836Z,5.00
2023-04-29T09:52:22.322Z,5.50
2023-04-29T09:55:05.224Z,3.38
2023-04-29T09:57:43.353Z,7.93
2023-04-29T10:00:17.463Z,3.25
2023-04-29T10:02:50.449Z,7.57
2023-04-29T10:05:23.083Z,3.55
2023-04-29T10:07:56.366Z,3.80
2023-04-29T10:10:30.660Z,5.18
2023-04-29T10:13:04.751Z,5.22
2023-04-29T10:15:43.730Z,7.13
2023-04-29T10:18:20.626Z,9.18
2023-04-29T10:20:57.123Z,5.95
2023-04-29T10:23:31.044Z,8.75
2023-04-29T10:26:05.528Z,7.97
2023-04-29T10:28:40.253Z,11.50
2023-04-29T10:31:14.260Z,5.32
2023-04-29T10:33:47.668Z,6.45
2023-04-29T10:36:21.513Z,6.57
2023-04-29T10:38:56.825Z,6.80
2023-04-29T10:41:34.242Z,8.55
2023-04-29T10:44:07.367Z,8.68
2023-04-29T10:46:40.101Z,6.63
2023-04-29T10:49:13.174Z,9.43
2023-04-29T10:51:45.691Z,5.07
2023-04-29T10:54:24.796Z,8.05
2023-04-29T10:56:57.524Z,12.90
2023-04-29T10:59:46.384Z,11.75
2023-04-29T11:02:20.153Z,8.35
2023-04-29T11:05:08.805Z,8.43
2023-04-29T11:07:41.181Z,9.47
2023-04-29T11:12:45.989Z,8.00
2023-04-29T11:15:19.084Z,7.88
2023-04-29T11:17:51.591Z,8.52
2023-04-29T11:20:24.168Z,5.93
2023-04-29T11:22:57.193Z,5.68
2023-04-29T11:25:29.737Z,6.50
2023-04-29T11:28:03.352Z,5.55
2023-04-29T11:30:38.060Z,9.45
2023-04-29T11:33:10.522Z,4.68
2023-04-29T11:35:43.280Z,4.57
2023-04-29T11:38:16.033Z,3.30
2023-04-29T11:40:49.381Z,6.95
2023-04-29T11:43:23.246Z,3.35
2023-04-29T11:45:56.331Z,4.50
2023-04-29T11:48:29.694Z,6.57
2023-04-29T11:51:02.042Z,3.70
2023-04-29T11:53:34.906Z,3.47
2023-04-29T11:56:08.694Z,4.97
2023-04-29T11:58:43.043Z,3.78
2023-04-29T12:01:16.111Z,3.72
2023-04-29T12:03:49.116Z,3.15
2023-04-29T12:06:21.575Z,3.53
2023-04-29T12:08:53.910Z,4.18
2023-04-29T12:11:27.528Z,9.77
2023-04-29T12:14:01.986Z,1.95
2023-04-29T12:16:35.548Z,3.10
2023-04-29T12:19:09.851Z,4.30
2023-04-29T12:21:49.392Z,2.15
2023-04-29T12:26:55.116Z,2.03
2023-04-29T12:29:27.597Z,1.95
2023-04-29T12:32:01.027Z,2.55
2023-04-29T12:34:33.718Z,1.40
2023-04-29T12:37:06.083Z,1.88
2023-04-29T12:39:38.754Z,1.83
2023-04-29T12:42:15.699Z,2.55
2023-04-29T12:44:48.845Z,2.47
2023-04-29T12:47:21.893Z,1.98
2023-04-29T12:49:57.232Z,2.65
2023-04-29T12:52:30.084Z,1.75
2023-04-29T12:55:02.543Z,1.48
2023-04-29T12:57:34.986Z,1.05
2023-04-29T13:00:08.730Z,4.22
2023-04-29T13:02:41.973Z,9.73
2023-04-29T13:05:14.571Z,0.82
2023-04-29T13:07:46.899Z,0.65
2023-04-29T13:10:19.209Z,3.70
2023-04-29T13:12:51.546Z,1.75
2023-04-29T13:15:24.462Z,2.05
2023-04-29T13:17:58.004Z,1.85
2023-04-29T13:20:30.883Z,1.77
2023-04-29T13:23:03.208Z,2.70
2023-04-29T13:25:35.531Z,2.78
2023-04-29T13:28:08.167Z,3.50
2023-04-29T13:30:41.194Z,2.45
2023-04-29T13:33:14.532Z,3.55
2023-04-29T13:35:48.802Z,2.35
2023-04-29T13:38:22.601Z,2.83
2023-04-29T13:40:56.152Z,7.88
2023-04-29T13:43:37.570Z,3.55
2023-04-29T13:46:11.674Z,2.85
2023-04-29T13:49:17.082Z,3.28
2023-04-29T13:52:16.875Z,3.08
2023-04-29T14:00:19.135Z,7.22
2023-04-29T14:02:33.688Z,6.90
2023-04-29T14:05:09.403Z,3.65
2023-04-29T14:07:41.880Z,2.85
2023-04-29T14:10:14.168Z,3.30
2023-04-29T14:12:46.581Z,2.80
2023-04-29T14:15:18.896Z,3.97
2023-04-29T14:17:51.536Z,3.83
2023-04-29T14:20:24.578Z,2.70
2023-04-29T14:22:56.872Z,3.20
2023-04-29T14:25:30.015Z,4.40
2023-04-29T14:28:03.690Z,3.17
2023-04-29T14:30:35.998Z,3.25
2023-04-29T14:33:08.431Z,6.50
2023-04-29T14:35:41.390Z,6.30
2023-04-29T14:38:13.704Z,5.75
2023-04-29T14:40:46.759Z,6.90
2023-04-29T14:43:19.164Z,8.20
2023-04-29T14:45:51.477Z,5.30
2023-04-29T14:48:23.888Z,3.97
2023-04-29T14:50:57.191Z,5.80
2023-04-29T14:53:29.547Z,2.92
2023-04-29T14:56:02.971Z,1.63
2023-04-29T14:58:35.322Z,3.25
2023-04-29T15:01:08.211Z,7.15
2023-04-29T15:03:43.902Z,5.28
2023-04-29T15:06:17.637Z,3.67
2023-04-29T15:08:50.019Z,9.68
2023-04-29T15:11:22.386Z,7.80
2023-04-29T15:13:54.717Z,5.72
2023-04-29T15:16:27.918Z,9.13
2023-04-29T15:19:01.002Z,4.55
2023-04-29T15:21:34.955Z,5.30
2023-04-29T15:24:07.929Z,5.03
2023-04-29T15:26:40.299Z,3.97
2023-04-29T15:29:12.729Z,4.63
2023-04-29T15:31:45.244Z,3.97
2023-04-29T15:34:17.563Z,5.15
2023-04-29T15:36:50.741Z,4.60
2023-04-29T15:39:23.184Z,5.93
2023-04-29T15:41:55.983Z,9.20
2023-04-29T15:44:28.969Z,4.25
2023-04-29T15:47:01.346Z,3.15
2023-04-29T15:49:33.634Z,5.82
2023-04-29T15:52:06.616Z,7.00
2023-04-29T15:54:38.997Z,5.18
2023-04-29T15:57:11.302Z,4.05
2023-04-29T15:59:43.621Z,4.72
2023-04-29T16:02:16.021Z,4.88
2023-04-29T16:04:48.300Z,7.57
2023-04-29T16:07:21.280Z,4.85
2023-04-29T16:09:53.771Z,8.48
2023-04-29T16:12:26.339Z,7.85
2023-04-29T16:14:58.943Z,9.52
2023-04-29T16:17:31.670Z,6.35
2023-04-29T16:20:04.738Z,6.50
2023-04-29T16:22:37.716Z,6.40
2023-04-29T16:25:10.801Z,4.78
2023-04-29T16:27:43.044Z,4.45
2023-04-29T16:30:15.386Z,5.00
2023-04-29T16:32:47.747Z,4.35
2023-04-29T16:35:24.391Z,7.57
2023-04-29T16:37:57.461Z,19.88
2023-04-29T16:40:29.830Z,36.50
2023-04-29T16:43:02.133Z,25.40
2023-04-29T16:45:34.465Z,10.95
2023-04-29T16:48:07.645Z,10.77
2023-04-29T16:50:40.067Z,6.05
2023-04-29T16:53:13.313Z,12.20
2023-04-29T16:55:45.748Z,7.07
2023-04-29T16:58:18.656Z,9.52
2023-04-29T17:00:52.500Z,22.10
2023-04-29T17:03:24.906Z,19.95
2023-04-29T17:05:58.421Z,19.23
2023-04-29T17:08:31.554Z,24.77
2023-04-29T17:11:04.607Z,10.05
2023-04-29T17:13:36.977Z,12.85
2023-04-29T17:16:09.387Z,5.40
2023-04-29T17:18:41.917Z,5.68
2023-04-29T17:21:14.687Z,6.50
2023-04-29T17:23:47.868Z,8.57
2023-04-29T17:26:20.579Z,5.55
2023-04-29T17:28:52.876Z,6.30
2023-04-29T17:31:33.034Z,8.52
2023-04-29T17:34:17.431Z,8.10
2023-04-29T17:36:50.782Z,9.98
2023-04-29T17:39:23.798Z,4.57
2023-04-29T17:41:56.397Z,13.20
2023-04-29T17:44:28.692Z,9.52
2023-04-29T17:47:01.451Z,9.88
2023-04-29T17:49:33.762Z,9.27
2023-04-29T17:52:06.093Z,8.88
2023-04-29T17:54:39.556Z,23.65
2023-04-29T17:57:11.847Z,11.88
2023-04-29T17:59:44.156Z,13.00
2023-04-29T18:02:16.428Z,10.13
2023-04-29T18:04:48.779Z,12.95
2023-04-29T18:07:21.077Z,15.40
2023-04-29T18:09:54.273Z,15.63
2023-04-29T18:12:26.847Z,18.52
2023-04-29T18:15:00.031Z,17.00
2023-04-29T18:17:33.435Z,17.42
2023-04-29T18:20:07.453Z,15.02
2023-04-29T18:22:39.800Z,23.50
2023-04-29T18:25:12.764Z,25.38
2023-04-29T18:27:45.073Z,33.22
2023-04-29T18:30:17.574Z,29.50
2023-04-29T18:32:50.022Z,29.13
2023-04-29T18:35:22.595Z,37.42
2023-04-29T18:37:54.895Z,39.33
2023-04-29T18:40:27.939Z,26.63
2023-04-29T18:43:01.362Z,13.13
2023-04-29T18:45:33.745Z,8.38
2023-04-29T18:48:06.219Z,8.20
2023-04-29T18:50:39.390Z,9.73
2023-04-29T18:53:11.885Z,10.57
2023-04-29T18:55:45.363Z,10.52
2023-04-29T18:58:17.713Z,9.57
2023-04-29T19:00:50.217Z,10.13
2023-04-29T19:03:22.580Z,10.55
2023-04-29T19:05:55.017Z,11.85
2023-04-29T19:08:27.387Z,14.02
2023-04-29T19:11:00.988Z,12.35
2023-04-29T19:13:33.330Z,11.63
2023-04-29T19:16:05.977Z,9.65
2023-04-29T19:18:38.328Z,9.73
2023-04-29T19:21:11.123Z,11.75
2023-04-29T19:23:43.619Z,8.98
2023-04-29T19:26:16.637Z,10.82
2023-04-29T19:28:48.902Z,70.78
2023-04-29T19:31:21.252Z,52.13
2023-04-29T19:33:53.627Z,30.45
2023-04-29T19:36:26.078Z,17.23
2023-04-29T19:38:58.599Z,17.38
2023-04-29T19:41:32.713Z,16.48
2023-04-29T19:44:07.000Z,11.35
2023-04-29T19:46:40.354Z,11.15
2023-04-29T19:49:12.665Z,15.60
2023-04-29T19:51:45.067Z,12.90
2023-04-29T19:54:17.564Z,11.18
2023-04-29T19:56:50.542Z,10.15
2023-04-29T19:59:22.912Z,10.32
2023-04-29T20:01:55.281Z,11.88
2023-04-29T20:04:27.672Z,31.10
2023-04-29T20:07:00.941Z,18.83
2023-04-29T20:09:34.461Z,21.70
2023-04-29T20:12:07.436Z,18.33
2023-04-29T20:14:39.800Z,17.77
2023-04-29T20:17:12.768Z,16.05
2023-04-29T20:19:45.232Z,15.30
2023-04-29T20:22:17.758Z,17.38
2023-04-29T20:24:50.124Z,17.95
2023-04-29T20:27:23.129Z,16.08
2023-04-29T20:29:56.373Z,18.10
2023-04-29T20:32:28.819Z,19.38
2023-04-29T20:35:01.562Z,19.13
2023-04-29T20:37:33.887Z,19.30
2023-04-29T20:40:07.788Z,28.98
2023-04-29T20:42:41.141Z,37.58
2023-04-29T20:45:13.512Z,28.00
2023-04-29T20:47:45.870Z,23.60
2023-04-29T20:50:18.576Z,28.42
2023-04-29T20:52:51.776Z,31.73
2023-04-29T20:55:24.278Z,30.95
2023-04-29T20:57:57.224Z,31.27
2023-04-29T21:00:29.604Z,20.92
2023-04-29T21:03:01.994Z,18.13
2023-04-29T21:05:34.342Z,16.45
2023-04-29T21:08:06.645Z,17.60
2023-04-29T21:10:38.998Z,15.95
2023-04-29T21:13:12.578Z,18.08
2023-04-29T21:15:45.314Z,16.73
2023-04-29T21:18:18.132Z,16.77
2023-04-29T21:20:50.590Z,18.02
2023-04-29T21:23:22.881Z,22.05
2023-04-29T21:25:55.433Z,17.95
2023-04-29T21:28:28.446Z,25.38
2023-04-29T21:31:01.042Z,16.98
2023-04-29T21:33:33.400Z,17.27
2023-04-29T21:36:05.943Z,19.42
2023-04-29T21:38:38.194Z,16.85
2023-04-29T21:41:18.595Z,22.38
2023-04-29T21:43:51.757Z,21.42
2023-04-29T21:46:24.898Z,23.60
2023-04-29T21:48:57.800Z,20.58
2023-04-29T21:51:30.988Z,26.10
2023-04-29T21:54:07.543Z,25.38
2023-04-29T21:56:39.879Z,28.27
2023-04-29T21:59:12.894Z,20.83
2023-04-29T22:01:48.378Z,26.92
2023-04-29T22:04:20.902Z,20.85
2023-04-29T22:06:53.265Z,23.25
2023-04-29T22:09:25.637Z,25.15
2023-04-29T22:11:57.959Z,21.70
2023-04-29T22:14:30.944Z,19.25
2023-04-29T22:17:03.250Z,20.52
2023-04-29T22:19:35.570Z,19.95
2023-04-29T22:22:08.205Z,17.50
2023-04-29T22:24:40.558Z,20.33
2023-04-29T22:27:12.909Z,20.13
2023-04-29T22:29:45.827Z,17.25
2023-04-29T22:32:18.202Z,16.63
2023-04-29T22:34:50.947Z,15.00
2023-04-29T22:37:23.261Z,14.47
2023-04-29T22:39:56.178Z,22.80
2023-04-29T22:42:28.798Z,12.88
2023-04-29T22:45:01.805Z,13.48
2023-04-29T22:47:34.201Z,8.95
2023-04-29T22:50:07.473Z,9.57
2023-04-29T22:52:39.822Z,9.48
2023-04-29T22:55:12.401Z,10.65
2023-04-29T22:57:44.661Z,10.90
2023-04-29T23:00:17.908Z,11.88
2023-04-29T23:02:50.243Z,13.57
2023-04-29T23:05:22.545Z,11.27
2023-04-29T23:07:54.850Z,12.27
2023-04-29T23:10:27.309Z,11.90
2023-04-29T23:12:59.912Z,13.23
2023-04-29T23:15:33.307Z,9.10
2023-04-29T23:18:05.686Z,11.05
2023-04-29T23:20:38.261Z,10.48
2023-04-29T23:23:10.541Z,6.95
2023-04-29T23:25:42.930Z,11.73
2023-04-29T23:28:15.979Z,7.30
2023-04-29T23:30:48.977Z,8.98
2023-04-29T23:33:21.478Z,8.10
2023-04-29T23:35:53.996Z,11.15
2023-04-29T23:38:26.309Z,13.05
2023-04-29T23:40:58.649Z,11.18
2023-04-29T23:43:31.428Z,7.90
2023-04-29T23:46:04.528Z,9.55
2023-04-29T23:48:36.894Z,6.90
2023-04-29T23:51:09.401Z,9.27
2023-04-29T23:53:41.732Z,9.30
2023-04-29T23:56:14.006Z,7.30
2023-04-29T23:58:46.375Z,8.52
